地図

経路データ

SID SEASON NUMBER BASIN SUBBASIN NAME ISO_TIME NATURE LAT LON WMO_WIND WMO_PRES WMO_AGENCY TRACK_TYPE DIST2LAND LANDFALL IFLAG USA_AGENCY USA_ATCF_ID USA_LAT USA_LON USA_RECORD USA_STATUS USA_WIND USA_PRES USA_SSHS USA_R34_NE USA_R34_SE USA_R34_SW USA_R34_NW USA_R50_NE USA_R50_SE USA_R50_SW USA_R50_NW USA_R64_NE USA_R64_SE USA_R64_SW USA_R64_NW USA_POCI USA_ROCI USA_RMW USA_EYE TOKYO_LAT TOKYO_LON TOKYO_GRADE TOKYO_WIND TOKYO_PRES TOKYO_R50_DIR TOKYO_R50_LONG TOKYO_R50_SHORT TOKYO_R30_DIR TOKYO_R30_LONG TOKYO_R30_SHORT TOKYO_LAND CMA_LAT CMA_LON CMA_CAT CMA_WIND CMA_PRES HKO_LAT HKO_LON HKO_CAT HKO_WIND HKO_PRES NEWDELHI_LAT NEWDELHI_LON NEWDELHI_GRADE NEWDELHI_WIND NEWDELHI_PRES NEWDELHI_CI NEWDELHI_DP NEWDELHI_POCI REUNION_LAT REUNION_LON REUNION_TYPE REUNION_WIND REUNION_PRES REUNION_TNUM REUNION_CI REUNION_RMW REUNION_R34_NE REUNION_R34_SE REUNION_R34_SW REUNION_R34_NW REUNION_R50_NE REUNION_R50_SE REUNION_R50_SW REUNION_R50_NW REUNION_R64_NE REUNION_R64_SE REUNION_R64_SW REUNION_R64_NW BOM_LAT BOM_LON BOM_TYPE BOM_WIND BOM_PRES BOM_TNUM BOM_CI BOM_RMW BOM_R34_NE BOM_R34_SE BOM_R34_SW BOM_R34_NW BOM_R50_NE BOM_R50_SE BOM_R50_SW BOM_R50_NW BOM_R64_NE BOM_R64_SE BOM_R64_SW BOM_R64_NW BOM_ROCI BOM_POCI BOM_EYE BOM_POS_METHOD BOM_PRES_METHOD NADI_LAT NADI_LON NADI_CAT NADI_WIND NADI_PRES WELLINGTON_LAT WELLINGTON_LON WELLINGTON_WIND WELLINGTON_PRES DS824_LAT DS824_LON DS824_STAGE DS824_WIND DS824_PRES TD9636_LAT TD9636_LON TD9636_STAGE TD9636_WIND TD9636_PRES TD9635_LAT TD9635_LON TD9635_WIND TD9635_PRES TD9635_ROCI NEUMANN_LAT NEUMANN_LON NEUMANN_CLASS NEUMANN_WIND NEUMANN_PRES MLC_LAT MLC_LON MLC_CLASS MLC_WIND MLC_PRES USA_GUST BOM_GUST BOM_GUST_PER REUNION_GUST REUNION_GUST_PER USA_SEAHGT USA_SEARAD_NE USA_SEARAD_SE USA_SEARAD_SW USA_SEARAD_NW STORM_SPEED STORM_DIR
1978242N26300 1978 79 NA NA ELLA 1978-08-30 00:00:00 TS 26.2000 -59.7000 20 1012 hurdat_atl main 1061 1042 O_____________ hurdat_atl AL101978 26.2000 -59.7000 TD 20 1012 -1 10 285
1978242N26300 1978 79 NA NA ELLA 1978-08-30 03:00:00 TS 26.3253 -60.2376 main 1042 1030 P_____________ AL101978 26.3253 -60.2376 TD 20 1011 -1 10 287
1978242N26300 1978 79 NA NA ELLA 1978-08-30 06:00:00 TS 26.5000 -60.8000 20 1011 hurdat_atl main 1030 1021 O_____________ hurdat_atl AL101978 26.5000 -60.8000 TD 20 1011 -1 11 292
1978242N26300 1978 79 NA NA ELLA 1978-08-30 09:00:00 TS 26.7499 -61.3997 main 1022 1022 P_____________ AL101978 26.7499 -61.3997 TD 25 1010 -1 12 295
1978242N26300 1978 79 NA NA ELLA 1978-08-30 12:00:00 TS 27.0000 -62.0000 30 1010 hurdat_atl main 1029 1022 O_____________ hurdat_atl AL101978 27.0000 -62.0000 TD 30 1010 -1 11 292
1978242N26300 1978 79 NA NA ELLA 1978-08-30 15:00:00 TS 27.1647 -62.5579 main 1030 1021 P_____________ AL101978 27.1647 -62.5579 TD 35 1007 0 10 287
1978242N26300 1978 79 NA NA ELLA 1978-08-30 18:00:00 TS 27.3000 -63.1000 40 1005 hurdat_atl main 1027 1022 O_____________ hurdat_atl AL101978 27.3000 -63.1000 TS 40 1005 0 10 286
1978242N26300 1978 79 NA NA ELLA 1978-08-30 21:00:00 TS 27.4267 -63.6058 main 1026 1024 P_____________ AL101978 27.4267 -63.6058 TS 45 1002 0 10 287
1978242N26300 1978 79 NA NA ELLA 1978-08-31 00:00:00 TS 27.6000 -64.2000 50 1000 hurdat_atl main 1038 1036 O_____________ hurdat_atl AL101978 27.6000 -64.2000 TS 50 1000 0 13 290
1978242N26300 1978 79 NA NA ELLA 1978-08-31 03:00:00 TS 27.8777 -65.0048 main 1055 1045 P_____________ AL101978 27.8777 -65.0048 TS 52 996 0 16 292
1978242N26300 1978 79 NA NA ELLA 1978-08-31 06:00:00 TS 28.2000 -65.9000 55 993 hurdat_atl main 1047 1031 O_____________ hurdat_atl AL101978 28.2000 -65.9000 TS 55 993 0 17 292
1978242N26300 1978 79 NA NA ELLA 1978-08-31 09:00:00 TS 28.5076 -66.7875 main 1027 1007 P_____________ AL101978 28.5076 -66.7875 TS 57 989 0 16 292
1978242N26300 1978 79 NA NA ELLA 1978-08-31 12:00:00 TS 28.8000 -67.6000 60 986 hurdat_atl main 1007 996 O_____________ hurdat_atl AL101978 28.8000 -67.6000 TS 60 986 0 14 294
1978242N26300 1978 79 NA NA ELLA 1978-08-31 15:00:00 TS 29.0716 -68.2379 main 999 941 P_____________ AL101978 29.0716 -68.2379 TS 65 983 1 12 295
1978242N26300 1978 79 NA NA ELLA 1978-08-31 18:00:00 TS 29.3000 -68.8000 70 980 hurdat_atl main 941 891 O_____________ hurdat_atl AL101978 29.3000 -68.8000 HU 70 980 1 11 290
1978242N26300 1978 79 NA NA ELLA 1978-08-31 21:00:00 TS 29.4498 -69.4082 main 891 834 P_____________ AL101978 29.4498 -69.4082 HU 80 979 1 11 286
1978242N26300 1978 79 NA NA ELLA 1978-09-01 00:00:00 TS 29.6000 -70.0000 90 978 hurdat_atl main 834 777 O_____________ hurdat_atl AL101978 29.6000 -70.0000 HU 90 978 2 11 290
1978242N26300 1978 79 NA NA ELLA 1978-09-01 03:00:00 TS 29.8275 -70.5874 main 777 720 P_____________ AL101978 29.8275 -70.5874 HU 95 976 2 11 298
1978242N26300 1978 79 NA NA ELLA 1978-09-01 06:00:00 TS 30.1000 -71.1000 100 975 hurdat_atl main 720 669 O_____________ hurdat_atl AL101978 30.1000 -71.1000 HU 100 975 3 10 306
1978242N26300 1978 79 NA NA ELLA 1978-09-01 09:00:00 TS 30.4072 -71.4951 main 669 625 P_____________ AL101978 30.4072 -71.4951 HU 105 972 3 9 315
1978242N26300 1978 79 NA NA ELLA 1978-09-01 12:00:00 TS 30.7000 -71.8000 110 970 hurdat_atl main 625 589 O_____________ hurdat_atl AL101978 30.7000 -71.8000 HU 110 970 3 7 317
1978242N26300 1978 79 NA NA ELLA 1978-09-01 15:00:00 TS 30.9374 -72.0727 main 589 560 P_____________ AL101978 30.9374 -72.0727 HU 110 965 3 6 313
1978242N26300 1978 79 NA NA ELLA 1978-09-01 18:00:00 TS 31.1000 -72.3000 110 960 hurdat_atl main 560 539 O_____________ hurdat_atl AL101978 31.1000 -72.3000 HU 110 960 3 4 301
1978242N26300 1978 79 NA NA ELLA 1978-09-01 21:00:00 TS 31.1649 -72.5077 main 539 526 P_____________ AL101978 31.1649 -72.5077 HU 107 960 3 4 286
1978242N26300 1978 79 NA NA ELLA 1978-09-02 00:00:00 TS 31.2000 -72.7000 105 960 hurdat_atl main 526 505 O_____________ hurdat_atl AL101978 31.2000 -72.7000 HU 105 960 3 4 290
1978242N26300 1978 79 NA NA ELLA 1978-09-02 03:00:00 TS 31.2925 -72.9149 main 505 485 P_____________ AL101978 31.2925 -72.9149 HU 102 968 3 4 300
1978242N26300 1978 79 NA NA ELLA 1978-09-02 06:00:00 TS 31.4000 -73.1000 100 977 hurdat_atl main 485 470 O_____________ hurdat_atl AL101978 31.4000 -73.1000 HU 100 977 3 4 305
1978242N26300 1978 79 NA NA ELLA 1978-09-02 09:00:00 TS 31.4924 -73.2524 main 464 455 P_____________ AL101978 31.4924 -73.2524 HU 90 979 2 3 319
1978242N26300 1978 79 NA NA ELLA 1978-09-02 12:00:00 TS 31.6000 -73.3000 80 981 hurdat_atl main 455 447 O_____________ hurdat_atl AL101978 31.6000 -73.3000 HU 80 981 1 3 14
1978242N26300 1978 79 NA NA ELLA 1978-09-02 15:00:00 TS 31.7351 -73.1801 main 453 445 P_____________ AL101978 31.7351 -73.1801 HU 75 982 1 4 40
1978242N26300 1978 79 NA NA ELLA 1978-09-02 18:00:00 TS 31.9000 -73.0000 70 983 hurdat_atl main 450 441 O_____________ hurdat_atl AL101978 31.9000 -73.0000 HU 70 983 1 4 35
1978242N26300 1978 79 NA NA ELLA 1978-09-02 21:00:00 TS 32.0699 -72.9072 main 441 434 P_____________ AL101978 32.0699 -72.9072 HU 70 983 1 4 23
1978242N26300 1978 79 NA NA ELLA 1978-09-03 00:00:00 TS 32.3000 -72.8000 70 983 hurdat_atl main 434 419 O_____________ hurdat_atl AL101978 32.3000 -72.8000 HU 70 983 1 6 22
1978242N26300 1978 79 NA NA ELLA 1978-09-03 03:00:00 TS 32.6199 -72.6373 main 426 413 P_____________ AL101978 32.6199 -72.6373 HU 75 982 1 8 26
1978242N26300 1978 79 NA NA ELLA 1978-09-03 06:00:00 TS 33.0000 -72.4000 80 981 hurdat_atl main 416 410 O_____________ hurdat_atl AL101978 33.0000 -72.4000 HU 80 981 1 9 30
1978242N26300 1978 79 NA NA ELLA 1978-09-03 09:00:00 TS 33.3619 -72.1310 main 409 409 P_____________ AL101978 33.3619 -72.1310 HU 82 978 1 10 36
1978242N26300 1978 79 NA NA ELLA 1978-09-03 12:00:00 TS 33.8000 -71.7000 85 976 hurdat_atl main 411 411 O_____________ hurdat_atl AL101978 33.8000 -71.7000 HU 85 976 2 14 42
1978242N26300 1978 79 NA NA ELLA 1978-09-03 15:00:00 TS 34.3699 -71.0399 main 437 437 P_____________ AL101978 34.3699 -71.0399 HU 90 973 2 17 46
1978242N26300 1978 79 NA NA ELLA 1978-09-03 18:00:00 TS 35.0000 -70.2000 95 970 hurdat_atl main 487 487 O_____________ hurdat_atl AL101978 35.0000 -70.2000 HU 95 970 2 18 50
1978242N26300 1978 79 NA NA ELLA 1978-09-03 21:00:00 TS 35.5542 -69.3065 main 558 558 P_____________ AL101978 35.5542 -69.3065 HU 102 966 3 20 52
1978242N26300 1978 79 NA NA ELLA 1978-09-04 00:00:00 TS 36.2000 -68.3000 110 962 hurdat_atl main 625 572 O_____________ hurdat_atl AL101978 36.2000 -68.3000 HU 110 962 3 22 48
1978242N26300 1978 79 NA NA ELLA 1978-09-04 03:00:00 TS 37.0382 -67.2295 main 575 536 P_____________ AL101978 37.0382 -67.2295 HU 112 960 3 26 46
1978242N26300 1978 79 NA NA ELLA 1978-09-04 06:00:00 TS 38.0000 -66.0000 115 958 hurdat_atl main 534 514 O_____________ hurdat_atl AL101978 38.0000 -66.0000 HU 115 958 4 28 48
1978242N26300 1978 79 NA NA ELLA 1978-09-04 09:00:00 TS 38.9462 -64.5839 main 515 436 P_____________ AL101978 38.9462 -64.5839 HU 117 957 4 31 49
1978242N26300 1978 79 NA NA ELLA 1978-09-04 12:00:00 TS 40.0000 -63.0000 120 956 hurdat_atl main 433 403 O_____________ hurdat_atl AL101978 40.0000 -63.0000 HU 120 956 4 33 48
1978242N26300 1978 79 NA NA ELLA 1978-09-04 15:00:00 TS 41.2082 -61.3555 main 398 330 P_____________ AL101978 41.2082 -61.3555 HU 117 956 4 36 46
1978242N26300 1978 79 NA NA ELLA 1978-09-04 18:00:00 TS 42.5000 -59.5000 115 956 hurdat_atl main 326 304 O_____________ hurdat_atl AL101978 42.5000 -59.5000 HU 115 956 4 39 49
1978242N26300 1978 79 NA NA ELLA 1978-09-04 21:00:00 TS 43.7711 -57.3436 main 312 213 P_____________ AL101978 43.7711 -57.3436 HU 110 958 3 41 52
1978242N26300 1978 79 NA NA ELLA 1978-09-05 00:00:00 TS 45.0000 -55.0000 105 960 hurdat_atl main 207 63 O_____________ hurdat_atl AL101978 45.0000 -55.0000 HU 105 960 3 41 54
1978242N26300 1978 79 NA NA ELLA 1978-09-05 03:00:00 TS 46.1469 -52.6439 main 72 69 P_____________ AL101978 46.1469 -52.6439 HU 92 967 2 40 57
1978242N26300 1978 79 NA NA ELLA 1978-09-05 06:00:00 TS 47.2000 -50.2000 80 975 hurdat_atl main 183 183 O_____________ hurdat_atl AL101978 47.2000 -50.2000 HU 80 975 1 39 60
1978242N26300 1978 79 NA NA ELLA 1978-09-05 09:00:00 TS 48.1449 -47.6499 main 377 377 P_____________ AL101978 48.1449 -47.6499 HU 72 977 1 39 63
1978242N26300 1978 79 NA NA ELLA 1978-09-05 12:00:00 TS 49.0000 -45.0000 65 980 hurdat_atl main 579 O_____________ hurdat_atl AL101978 49.0000 -45.0000 HU 65 980 1 39 64

IBTrACS Databaseについて

本データベースは、米国NOAAが公開する1842年以降の世界の熱帯低気圧のベストトラックデータアーカイブInternational Best Track Archive for Climate Stewardship (IBTrACS)を、ウェブで閲覧しやすい形式に変換したものです。

最終更新日:2021-12-06